sensor_id;sensor_type;location;lat;lon;timestamp;P1;durP1;ratioP1;P2;durP2;ratioP2
4353;SDS011;11018;51.258;6.806;2022-08-03T00:01:33;5.85;;;3.92;;
4353;SDS011;11018;51.258;6.806;2022-08-03T00:04:00;7.22;;;4.10;;
4353;SDS011;11018;51.258;6.806;2022-08-03T00:06:25;7.40;;;4.65;;
4353;SDS011;11018;51.258;6.806;2022-08-03T00:08:51;5.93;;;4.10;;
4353;SDS011;11018;51.258;6.806;2022-08-03T00:11:17;7.80;;;4.30;;
4353;SDS011;11018;51.258;6.806;2022-08-03T00:13:42;7.05;;;4.22;;
4353;SDS011;11018;51.258;6.806;2022-08-03T00:16:08;8.00;;;3.60;;
4353;SDS011;11018;51.258;6.806;2022-08-03T00:18:35;8.43;;;4.20;;
4353;SDS011;11018;51.258;6.806;2022-08-03T00:21:01;5.65;;;3.90;;
4353;SDS011;11018;51.258;6.806;2022-08-03T00:23:28;9.95;;;4.35;;
4353;SDS011;11018;51.258;6.806;2022-08-03T00:25:54;5.03;;;3.60;;
4353;SDS011;11018;51.258;6.806;2022-08-03T00:28:20;7.53;;;3.67;;
4353;SDS011;11018;51.258;6.806;2022-08-03T00:30:45;7.33;;;3.90;;
4353;SDS011;11018;51.258;6.806;2022-08-03T00:33:11;7.95;;;3.95;;
4353;SDS011;11018;51.258;6.806;2022-08-03T00:35:36;8.20;;;3.70;;
4353;SDS011;11018;51.258;6.806;2022-08-03T00:38:02;5.70;;;4.00;;
4353;SDS011;11018;51.258;6.806;2022-08-03T00:40:28;8.25;;;4.00;;
4353;SDS011;11018;51.258;6.806;2022-08-03T00:42:55;10.30;;;3.83;;
4353;SDS011;11018;51.258;6.806;2022-08-03T00:45:23;8.27;;;3.63;;
4353;SDS011;11018;51.258;6.806;2022-08-03T00:47:51;6.43;;;4.40;;
4353;SDS011;11018;51.258;6.806;2022-08-03T00:50:17;6.72;;;3.95;;
4353;SDS011;11018;51.258;6.806;2022-08-03T00:52:43;10.27;;;4.20;;
4353;SDS011;11018;51.258;6.806;2022-08-03T00:55:10;7.07;;;4.30;;
4353;SDS011;11018;51.258;6.806;2022-08-03T00:57:36;7.07;;;3.97;;
4353;SDS011;11018;51.258;6.806;2022-08-03T01:00:04;8.32;;;4.25;;
4353;SDS011;11018;51.258;6.806;2022-08-03T01:02:31;9.13;;;4.60;;
4353;SDS011;11018;51.258;6.806;2022-08-03T01:04:57;8.32;;;4.47;;
4353;SDS011;11018;51.258;6.806;2022-08-03T01:07:26;6.63;;;4.80;;
4353;SDS011;11018;51.258;6.806;2022-08-03T01:12:37;7.60;;;4.68;;
4353;SDS011;11018;51.258;6.806;2022-08-03T01:18:38;5.45;;;4.75;;
4353;SDS011;11018;51.258;6.806;2022-08-03T01:21:11;5.10;;;4.30;;
4353;SDS011;11018;51.258;6.806;2022-08-03T01:31:35;5.90;;;4.45;;
4353;SDS011;11018;51.258;6.806;2022-08-03T01:34:07;7.00;;;4.32;;
4353;SDS011;11018;51.258;6.806;2022-08-03T01:36:39;5.60;;;4.40;;
4353;SDS011;11018;51.258;6.806;2022-08-03T01:39:12;7.35;;;4.45;;
4353;SDS011;11018;51.258;6.806;2022-08-03T01:41:41;6.82;;;4.68;;
4353;SDS011;11018;51.258;6.806;2022-08-03T01:44:12;7.50;;;4.63;;
4353;SDS011;11018;51.258;6.806;2022-08-03T01:46:38;6.13;;;4.70;;
4353;SDS011;11018;51.258;6.806;2022-08-03T01:49:06;9.10;;;4.97;;
4353;SDS011;11018;51.258;6.806;2022-08-03T01:51:35;7.85;;;4.85;;
4353;SDS011;11018;51.258;6.806;2022-08-03T01:54:03;8.50;;;5.10;;
4353;SDS011;11018;51.258;6.806;2022-08-03T01:56:29;6.05;;;5.00;;
4353;SDS011;11018;51.258;6.806;2022-08-03T01:58:56;10.25;;;5.30;;
4353;SDS011;11018;51.258;6.806;2022-08-03T02:01:24;11.13;;;5.20;;
4353;SDS011;11018;51.258;6.806;2022-08-03T02:03:52;9.10;;;5.13;;
4353;SDS011;11018;51.258;6.806;2022-08-03T02:06:20;7.80;;;4.50;;
4353;SDS011;11018;51.258;6.806;2022-08-03T02:08:47;9.50;;;4.80;;
4353;SDS011;11018;51.258;6.806;2022-08-03T02:11:15;5.53;;;4.23;;
4353;SDS011;11018;51.258;6.806;2022-08-03T02:13:40;13.10;;;5.17;;
4353;SDS011;11018;51.258;6.806;2022-08-03T02:16:08;6.53;;;4.65;;
4353;SDS011;11018;51.258;6.806;2022-08-03T02:18:34;7.70;;;4.82;;
4353;SDS011;11018;51.258;6.806;2022-08-03T02:21:03;8.80;;;5.30;;
4353;SDS011;11018;51.258;6.806;2022-08-03T02:23:31;8.20;;;4.63;;
4353;SDS011;11018;51.258;6.806;2022-08-03T02:25:57;7.60;;;4.97;;
4353;SDS011;11018;51.258;6.806;2022-08-03T02:28:30;8.55;;;4.45;;
4353;SDS011;11018;51.258;6.806;2022-08-03T02:31:03;8.57;;;5.20;;
4353;SDS011;11018;51.258;6.806;2022-08-03T02:33:36;5.20;;;4.45;;
4353;SDS011;11018;51.258;6.806;2022-08-03T02:36:06;10.43;;;5.30;;
4353;SDS011;11018;51.258;6.806;2022-08-03T02:38:35;9.90;;;4.97;;
4353;SDS011;11018;51.258;6.806;2022-08-03T02:41:06;5.90;;;5.10;;
4353;SDS011;11018;51.258;6.806;2022-08-03T02:43:36;9.85;;;5.40;;
4353;SDS011;11018;51.258;6.806;2022-08-03T02:46:04;9.45;;;4.90;;
4353;SDS011;11018;51.258;6.806;2022-08-03T02:48:31;9.88;;;5.20;;
4353;SDS011;11018;51.258;6.806;2022-08-03T02:50:59;8.68;;;5.20;;
4353;SDS011;11018;51.258;6.806;2022-08-03T02:53:27;6.90;;;5.20;;
4353;SDS011;11018;51.258;6.806;2022-08-03T02:55:55;9.13;;;5.47;;
4353;SDS011;11018;51.258;6.806;2022-08-03T02:58:22;6.40;;;4.90;;
4353;SDS011;11018;51.258;6.806;2022-08-03T03:00:50;6.60;;;4.90;;
4353;SDS011;11018;51.258;6.806;2022-08-03T03:03:17;6.20;;;4.95;;
4353;SDS011;11018;51.258;6.806;2022-08-03T03:05:43;12.90;;;5.32;;
4353;SDS011;11018;51.258;6.806;2022-08-03T03:08:17;7.15;;;5.43;;
4353;SDS011;11018;51.258;6.806;2022-08-03T03:10:44;9.43;;;5.32;;
4353;SDS011;11018;51.258;6.806;2022-08-03T03:13:10;8.77;;;5.47;;
4353;SDS011;11018;51.258;6.806;2022-08-03T03:15:39;9.10;;;5.43;;
4353;SDS011;11018;51.258;6.806;2022-08-03T03:18:07;8.40;;;5.53;;
4353;SDS011;11018;51.258;6.806;2022-08-03T03:20:34;6.68;;;5.38;;
4353;SDS011;11018;51.258;6.806;2022-08-03T03:23:03;9.18;;;5.80;;
4353;SDS011;11018;51.258;6.806;2022-08-03T03:25:29;11.23;;;5.70;;
4353;SDS011;11018;51.258;6.806;2022-08-03T03:27:57;10.65;;;5.72;;
4353;SDS011;11018;51.258;6.806;2022-08-03T03:30:24;8.70;;;5.70;;
4353;SDS011;11018;51.258;6.806;2022-08-03T03:32:50;9.82;;;6.10;;
4353;SDS011;11018;51.258;6.806;2022-08-03T03:35:16;13.23;;;6.40;;
4353;SDS011;11018;51.258;6.806;2022-08-03T03:37:42;7.53;;;5.32;;
4353;SDS011;11018;51.258;6.806;2022-08-03T03:40:07;7.75;;;5.72;;
4353;SDS011;11018;51.258;6.806;2022-08-03T03:42:34;8.35;;;5.50;;
4353;SDS011;11018;51.258;6.806;2022-08-03T03:45:06;8.45;;;5.80;;
4353;SDS011;11018;51.258;6.806;2022-08-03T03:47:32;9.18;;;5.95;;
4353;SDS011;11018;51.258;6.806;2022-08-03T03:50:00;12.00;;;6.43;;
4353;SDS011;11018;51.258;6.806;2022-08-03T03:52:27;9.40;;;5.10;;
4353;SDS011;11018;51.258;6.806;2022-08-03T03:54:53;9.43;;;5.70;;
4353;SDS011;11018;51.258;6.806;2022-08-03T03:57:18;6.37;;;5.10;;
4353;SDS011;11018;51.258;6.806;2022-08-03T03:59:44;7.70;;;5.47;;
4353;SDS011;11018;51.258;6.806;2022-08-03T04:02:10;8.20;;;5.10;;
4353;SDS011;11018;51.258;6.806;2022-08-03T04:04:36;10.18;;;5.80;;
4353;SDS011;11018;51.258;6.806;2022-08-03T04:07:22;10.65;;;5.35;;
4353;SDS011;11018;51.258;6.806;2022-08-03T04:10:10;8.77;;;5.83;;
4353;SDS011;11018;51.258;6.806;2022-08-03T04:12:58;9.48;;;5.30;;
4353;SDS011;11018;51.258;6.806;2022-08-03T04:15:26;8.35;;;4.70;;
4353;SDS011;11018;51.258;6.806;2022-08-03T04:17:53;6.50;;;5.53;;
4353;SDS011;11018;51.258;6.806;2022-08-03T04:20:21;7.82;;;5.53;;
4353;SDS011;11018;51.258;6.806;2022-08-03T04:22:48;7.13;;;5.55;;
4353;SDS011;11018;51.258;6.806;2022-08-03T04:25:17;10.95;;;5.60;;
4353;SDS011;11018;51.258;6.806;2022-08-03T04:27:45;8.70;;;5.50;;
4353;SDS011;11018;51.258;6.806;2022-08-03T04:30:13;9.57;;;5.30;;
4353;SDS011;11018;51.258;6.806;2022-08-03T04:32:39;8.40;;;5.65;;
4353;SDS011;11018;51.258;6.806;2022-08-03T04:35:07;9.37;;;5.80;;
4353;SDS011;11018;51.258;6.806;2022-08-03T04:40:14;9.10;;;6.03;;
4353;SDS011;11018;51.258;6.806;2022-08-03T04:42:54;13.85;;;6.00;;
4353;SDS011;11018;51.258;6.806;2022-08-03T04:45:21;6.38;;;4.82;;
4353;SDS011;11018;51.258;6.806;2022-08-03T04:47:48;8.70;;;5.87;;
4353;SDS011;11018;51.258;6.806;2022-08-03T04:50:14;11.73;;;6.00;;
4353;SDS011;11018;51.258;6.806;2022-08-03T04:52:41;11.50;;;6.70;;
4353;SDS011;11018;51.258;6.806;2022-08-03T04:55:07;7.40;;;5.40;;
4353;SDS011;11018;51.258;6.806;2022-08-03T04:57:32;8.10;;;5.83;;
4353;SDS011;11018;51.258;6.806;2022-08-03T04:59:58;6.47;;;5.20;;
4353;SDS011;11018;51.258;6.806;2022-08-03T05:02:24;8.10;;;5.57;;
4353;SDS011;11018;51.258;6.806;2022-08-03T05:04:49;9.90;;;6.05;;
4353;SDS011;11018;51.258;6.806;2022-08-03T05:07:16;17.30;;;6.20;;
4353;SDS011;11018;51.258;6.806;2022-08-03T05:09:43;15.38;;;6.95;;
4353;SDS011;11018;51.258;6.806;2022-08-03T05:12:09;13.93;;;6.95;;
4353;SDS011;11018;51.258;6.806;2022-08-03T05:14:36;13.67;;;6.40;;
4353;SDS011;11018;51.258;6.806;2022-08-03T05:17:06;8.35;;;6.10;;
4353;SDS011;11018;51.258;6.806;2022-08-03T05:19:32;12.13;;;6.18;;
4353;SDS011;11018;51.258;6.806;2022-08-03T05:21:59;9.20;;;5.90;;
4353;SDS011;11018;51.258;6.806;2022-08-03T05:24:24;7.65;;;6.05;;
4353;SDS011;11018;51.258;6.806;2022-08-03T05:26:50;9.60;;;6.80;;
4353;SDS011;11018;51.258;6.806;2022-08-03T05:29:15;11.90;;;6.27;;
4353;SDS011;11018;51.258;6.806;2022-08-03T05:31:41;9.57;;;6.25;;
4353;SDS011;11018;51.258;6.806;2022-08-03T05:34:06;11.93;;;5.90;;
4353;SDS011;11018;51.258;6.806;2022-08-03T05:36:32;7.93;;;6.00;;
4353;SDS011;11018;51.258;6.806;2022-08-03T05:38:57;9.67;;;6.40;;
4353;SDS011;11018;51.258;6.806;2022-08-03T05:41:23;9.83;;;6.20;;
4353;SDS011;11018;51.258;6.806;2022-08-03T05:43:51;7.70;;;6.30;;
4353;SDS011;11018;51.258;6.806;2022-08-03T05:46:18;10.23;;;6.50;;
4353;SDS011;11018;51.258;6.806;2022-08-03T05:48:44;12.10;;;6.50;;
4353;SDS011;11018;51.258;6.806;2022-08-03T05:51:10;6.40;;;5.70;;
4353;SDS011;11018;51.258;6.806;2022-08-03T05:53:36;13.30;;;6.90;;
4353;SDS011;11018;51.258;6.806;2022-08-03T05:56:02;9.45;;;6.40;;
4353;SDS011;11018;51.258;6.806;2022-08-03T05:58:28;11.77;;;6.47;;
4353;SDS011;11018;51.258;6.806;2022-08-03T06:00:54;11.10;;;6.13;;
4353;SDS011;11018;51.258;6.806;2022-08-03T06:03:20;9.43;;;5.90;;
4353;SDS011;11018;51.258;6.806;2022-08-03T06:05:46;8.95;;;6.70;;
4353;SDS011;11018;51.258;6.806;2022-08-03T06:08:11;13.77;;;6.97;;
4353;SDS011;11018;51.258;6.806;2022-08-03T06:10:37;13.47;;;7.30;;
4353;SDS011;11018;51.258;6.806;2022-08-03T06:13:03;16.10;;;6.95;;
4353;SDS011;11018;51.258;6.806;2022-08-03T06:15:28;10.57;;;6.18;;
4353;SDS011;11018;51.258;6.806;2022-08-03T06:17:57;11.20;;;6.78;;
4353;SDS011;11018;51.258;6.806;2022-08-03T06:20:23;15.15;;;6.95;;
4353;SDS011;11018;51.258;6.806;2022-08-03T06:22:49;15.00;;;7.20;;
4353;SDS011;11018;51.258;6.806;2022-08-03T06:25:15;14.00;;;6.80;;
4353;SDS011;11018;51.258;6.806;2022-08-03T06:27:41;10.38;;;7.07;;
4353;SDS011;11018;51.258;6.806;2022-08-03T06:30:09;11.30;;;6.80;;
4353;SDS011;11018;51.258;6.806;2022-08-03T06:32:38;13.02;;;6.80;;
4353;SDS011;11018;51.258;6.806;2022-08-03T06:35:05;11.52;;;6.65;;
4353;SDS011;11018;51.258;6.806;2022-08-03T06:37:42;14.85;;;6.00;;
4353;SDS011;11018;51.258;6.806;2022-08-03T06:40:10;12.05;;;6.60;;
4353;SDS011;11018;51.258;6.806;2022-08-03T06:42:56;11.25;;;6.05;;
4353;SDS011;11018;51.258;6.806;2022-08-03T06:45:23;12.77;;;6.30;;
4353;SDS011;11018;51.258;6.806;2022-08-03T06:47:59;13.77;;;7.13;;
4353;SDS011;11018;51.258;6.806;2022-08-03T06:50:30;19.05;;;10.77;;
4353;SDS011;11018;51.258;6.806;2022-08-03T06:52:57;13.05;;;8.57;;
4353;SDS011;11018;51.258;6.806;2022-08-03T06:55:22;14.20;;;6.30;;
4353;SDS011;11018;51.258;6.806;2022-08-03T06:57:48;9.73;;;7.20;;
4353;SDS011;11018;51.258;6.806;2022-08-03T07:00:13;13.73;;;7.50;;
4353;SDS011;11018;51.258;6.806;2022-08-03T07:02:39;14.50;;;7.07;;
4353;SDS011;11018;51.258;6.806;2022-08-03T07:05:06;13.40;;;6.70;;
4353;SDS011;11018;51.258;6.806;2022-08-03T07:07:32;10.65;;;6.30;;
4353;SDS011;11018;51.258;6.806;2022-08-03T07:09:57;12.90;;;6.72;;
4353;SDS011;11018;51.258;6.806;2022-08-03T07:12:23;11.50;;;6.60;;
4353;SDS011;11018;51.258;6.806;2022-08-03T07:14:50;11.45;;;6.20;;
4353;SDS011;11018;51.258;6.806;2022-08-03T07:17:16;15.77;;;7.75;;
4353;SDS011;11018;51.258;6.806;2022-08-03T07:19:41;13.00;;;6.50;;
4353;SDS011;11018;51.258;6.806;2022-08-03T07:22:07;10.15;;;6.50;;
4353;SDS011;11018;51.258;6.806;2022-08-03T07:24:33;11.18;;;6.00;;
4353;SDS011;11018;51.258;6.806;2022-08-03T07:26:59;10.80;;;5.90;;
4353;SDS011;11018;51.258;6.806;2022-08-03T07:29:24;13.50;;;6.30;;
4353;SDS011;11018;51.258;6.806;2022-08-03T07:31:50;13.63;;;5.90;;
4353;SDS011;11018;51.258;6.806;2022-08-03T07:34:15;9.13;;;6.00;;
4353;SDS011;11018;51.258;6.806;2022-08-03T07:36:41;12.00;;;5.90;;
4353;SDS011;11018;51.258;6.806;2022-08-03T07:39:06;10.75;;;5.30;;
4353;SDS011;11018;51.258;6.806;2022-08-03T07:41:32;12.43;;;5.40;;
4353;SDS011;11018;51.258;6.806;2022-08-03T07:43:58;10.65;;;5.97;;
4353;SDS011;11018;51.258;6.806;2022-08-03T07:46:23;12.43;;;6.07;;
4353;SDS011;11018;51.258;6.806;2022-08-03T07:48:49;16.73;;;6.32;;
4353;SDS011;11018;51.258;6.806;2022-08-03T07:51:14;8.97;;;6.07;;
4353;SDS011;11018;51.258;6.806;2022-08-03T07:53:40;14.05;;;6.72;;
4353;SDS011;11018;51.258;6.806;2022-08-03T07:56:05;10.73;;;6.23;;
4353;SDS011;11018;51.258;6.806;2022-08-03T07:58:31;15.38;;;8.00;;
4353;SDS011;11018;51.258;6.806;2022-08-03T08:00:59;16.75;;;8.95;;
4353;SDS011;11018;51.258;6.806;2022-08-03T08:03:24;14.32;;;6.93;;
4353;SDS011;11018;51.258;6.806;2022-08-03T08:05:50;15.57;;;5.90;;
4353;SDS011;11018;51.258;6.806;2022-08-03T08:08:17;13.73;;;5.80;;
4353;SDS011;11018;51.258;6.806;2022-08-03T08:10:44;14.48;;;5.90;;
4353;SDS011;11018;51.258;6.806;2022-08-03T08:13:10;12.20;;;5.72;;
4353;SDS011;11018;51.258;6.806;2022-08-03T08:15:35;9.20;;;5.03;;
4353;SDS011;11018;51.258;6.806;2022-08-03T08:18:01;9.87;;;5.23;;
4353;SDS011;11018;51.258;6.806;2022-08-03T08:20:28;10.67;;;5.37;;
4353;SDS011;11018;51.258;6.806;2022-08-03T08:22:55;13.23;;;4.63;;
4353;SDS011;11018;51.258;6.806;2022-08-03T08:25:22;11.70;;;5.23;;
4353;SDS011;11018;51.258;6.806;2022-08-03T08:27:48;11.65;;;5.35;;
4353;SDS011;11018;51.258;6.806;2022-08-03T08:30:14;8.88;;;4.45;;
4353;SDS011;11018;51.258;6.806;2022-08-03T08:32:42;13.98;;;4.70;;
4353;SDS011;11018;51.258;6.806;2022-08-03T08:35:09;14.57;;;4.25;;
4353;SDS011;11018;51.258;6.806;2022-08-03T08:37:35;7.37;;;4.40;;
4353;SDS011;11018;51.258;6.806;2022-08-03T08:40:01;8.05;;;4.40;;
4353;SDS011;11018;51.258;6.806;2022-08-03T08:42:28;12.77;;;4.50;;
4353;SDS011;11018;51.258;6.806;2022-08-03T08:44:55;6.60;;;4.60;;
4353;SDS011;11018;51.258;6.806;2022-08-03T08:47:25;9.90;;;4.60;;
4353;SDS011;11018;51.258;6.806;2022-08-03T08:49:54;11.40;;;3.75;;
4353;SDS011;11018;51.258;6.806;2022-08-03T08:52:26;6.28;;;3.05;;
4353;SDS011;11018;51.258;6.806;2022-08-03T08:54:57;7.28;;;3.63;;
4353;SDS011;11018;51.258;6.806;2022-08-03T08:57:28;8.70;;;3.50;;
4353;SDS011;11018;51.258;6.806;2022-08-03T08:59:55;6.95;;;3.40;;
4353;SDS011;11018;51.258;6.806;2022-08-03T09:02:22;5.80;;;3.00;;
4353;SDS011;11018;51.258;6.806;2022-08-03T09:04:48;7.07;;;4.07;;
4353;SDS011;11018;51.258;6.806;2022-08-03T09:07:14;6.18;;;3.40;;
4353;SDS011;11018;51.258;6.806;2022-08-03T09:09:41;11.57;;;3.22;;
4353;SDS011;11018;51.258;6.806;2022-08-03T09:12:07;8.70;;;3.35;;
4353;SDS011;11018;51.258;6.806;2022-08-03T09:14:33;7.17;;;3.00;;
4353;SDS011;11018;51.258;6.806;2022-08-03T09:16:59;9.65;;;3.35;;
4353;SDS011;11018;51.258;6.806;2022-08-03T09:19:26;11.50;;;3.67;;
4353;SDS011;11018;51.258;6.806;2022-08-03T09:22:14;9.15;;;3.50;;
4353;SDS011;11018;51.258;6.806;2022-08-03T09:24:55;5.80;;;3.00;;
4353;SDS011;11018;51.258;6.806;2022-08-03T09:27:22;8.25;;;3.00;;
4353;SDS011;11018;51.258;6.806;2022-08-03T09:29:49;12.27;;;3.45;;
4353;SDS011;11018;51.258;6.806;2022-08-03T09:32:20;11.50;;;3.20;;
4353;SDS011;11018;51.258;6.806;2022-08-03T09:34:47;6.40;;;3.10;;
4353;SDS011;11018;51.258;6.806;2022-08-03T09:37:15;14.05;;;3.53;;
4353;SDS011;11018;51.258;6.806;2022-08-03T09:39:42;8.00;;;3.50;;
4353;SDS011;11018;51.258;6.806;2022-08-03T09:42:13;8.90;;;3.10;;
4353;SDS011;11018;51.258;6.806;2022-08-03T09:44:42;8.18;;;3.30;;
4353;SDS011;11018;51.258;6.806;2022-08-03T09:47:10;12.65;;;2.65;;
4353;SDS011;11018;51.258;6.806;2022-08-03T09:49:38;12.55;;;3.00;;
4353;SDS011;11018;51.258;6.806;2022-08-03T09:52:11;7.93;;;2.05;;
4353;SDS011;11018;51.258;6.806;2022-08-03T09:54:42;5.65;;;2.10;;
4353;SDS011;11018;51.258;6.806;2022-08-03T09:57:22;5.28;;;2.00;;
4353;SDS011;11018;51.258;6.806;2022-08-03T09:59:49;4.80;;;2.35;;
4353;SDS011;11018;51.258;6.806;2022-08-03T10:02:22;7.45;;;2.03;;
4353;SDS011;11018;51.258;6.806;2022-08-03T10:04:49;8.93;;;2.17;;
4353;SDS011;11018;51.258;6.806;2022-08-03T10:07:17;7.82;;;2.38;;
4353;SDS011;11018;51.258;6.806;2022-08-03T10:09:55;7.15;;;2.40;;
4353;SDS011;11018;51.258;6.806;2022-08-03T10:12:24;5.20;;;2.30;;
4353;SDS011;11018;51.258;6.806;2022-08-03T10:14:50;9.33;;;3.00;;
4353;SDS011;11018;51.258;6.806;2022-08-03T10:17:17;5.88;;;2.28;;
4353;SDS011;11018;51.258;6.806;2022-08-03T10:19:43;5.18;;;2.20;;
4353;SDS011;11018;51.258;6.806;2022-08-03T10:22:11;4.27;;;2.23;;
4353;SDS011;11018;51.258;6.806;2022-08-03T10:24:39;7.50;;;2.30;;
4353;SDS011;11018;51.258;6.806;2022-08-03T10:27:11;2.80;;;2.00;;
4353;SDS011;11018;51.258;6.806;2022-08-03T10:29:41;5.68;;;2.20;;
4353;SDS011;11018;51.258;6.806;2022-08-03T10:32:18;3.80;;;2.30;;
4353;SDS011;11018;51.258;6.806;2022-08-03T10:35:19;9.32;;;2.10;;
4353;SDS011;11018;51.258;6.806;2022-08-03T10:37:44;5.35;;;1.85;;
4353;SDS011;11018;51.258;6.806;2022-08-03T10:40:27;4.97;;;2.10;;
4353;SDS011;11018;51.258;6.806;2022-08-03T10:42:55;7.53;;;2.38;;
4353;SDS011;11018;51.258;6.806;2022-08-03T10:45:27;5.90;;;2.15;;
4353;SDS011;11018;51.258;6.806;2022-08-03T10:47:55;10.05;;;2.13;;
4353;SDS011;11018;51.258;6.806;2022-08-03T10:50:22;6.55;;;2.00;;
4353;SDS011;11018;51.258;6.806;2022-08-03T10:52:52;5.15;;;2.30;;
4353;SDS011;11018;51.258;6.806;2022-08-03T10:55:28;11.00;;;2.20;;
4353;SDS011;11018;51.258;6.806;2022-08-03T10:58:13;6.40;;;2.42;;
4353;SDS011;11018;51.258;6.806;2022-08-03T11:00:48;7.75;;;3.20;;
4353;SDS011;11018;51.258;6.806;2022-08-03T11:03:14;4.03;;;2.40;;
4353;SDS011;11018;51.258;6.806;2022-08-03T11:05:44;3.08;;;2.00;;
4353;SDS011;11018;51.258;6.806;2022-08-03T11:08:19;13.93;;;2.80;;
4353;SDS011;11018;51.258;6.806;2022-08-03T11:11:00;6.35;;;3.25;;
4353;SDS011;11018;51.258;6.806;2022-08-03T11:13:28;4.57;;;2.00;;
4353;SDS011;11018;51.258;6.806;2022-08-03T11:15:56;10.10;;;2.20;;
4353;SDS011;11018;51.258;6.806;2022-08-03T11:18:23;7.50;;;2.60;;
4353;SDS011;11018;51.258;6.806;2022-08-03T11:20:52;4.20;;;2.00;;
4353;SDS011;11018;51.258;6.806;2022-08-03T11:26:12;5.32;;;2.08;;
4353;SDS011;11018;51.258;6.806;2022-08-03T11:28:41;6.30;;;2.42;;
4353;SDS011;11018;51.258;6.806;2022-08-03T11:34:05;4.20;;;1.90;;
4353;SDS011;11018;51.258;6.806;2022-08-03T11:39:39;4.80;;;2.20;;
4353;SDS011;11018;51.258;6.806;2022-08-03T11:44:58;4.00;;;2.10;;
4353;SDS011;11018;51.258;6.806;2022-08-03T11:47:24;9.07;;;2.10;;
4353;SDS011;11018;51.258;6.806;2022-08-03T11:49:58;5.10;;;1.80;;
4353;SDS011;11018;51.258;6.806;2022-08-03T11:52:26;3.58;;;1.90;;
4353;SDS011;11018;51.258;6.806;2022-08-03T11:54:57;5.20;;;1.90;;
4353;SDS011;11018;51.258;6.806;2022-08-03T11:57:33;5.00;;;1.83;;
4353;SDS011;11018;51.258;6.806;2022-08-03T12:00:00;2.90;;;1.70;;
4353;SDS011;11018;51.258;6.806;2022-08-03T12:02:26;5.65;;;2.00;;
4353;SDS011;11018;51.258;6.806;2022-08-03T12:04:52;6.47;;;1.90;;
4353;SDS011;11018;51.258;6.806;2022-08-03T12:07:22;4.82;;;1.90;;
4353;SDS011;11018;51.258;6.806;2022-08-03T12:10:07;6.57;;;1.90;;
4353;SDS011;11018;51.258;6.806;2022-08-03T12:12:34;5.43;;;1.90;;
4353;SDS011;11018;51.258;6.806;2022-08-03T12:15:00;6.20;;;1.90;;
4353;SDS011;11018;51.258;6.806;2022-08-03T12:17:32;3.67;;;2.15;;
4353;SDS011;11018;51.258;6.806;2022-08-03T12:20:03;4.78;;;2.10;;
4353;SDS011;11018;51.258;6.806;2022-08-03T12:22:33;8.10;;;2.38;;
4353;SDS011;11018;51.258;6.806;2022-08-03T12:25:04;4.05;;;1.80;;
4353;SDS011;11018;51.258;6.806;2022-08-03T12:27:30;6.80;;;1.95;;
4353;SDS011;11018;51.258;6.806;2022-08-03T12:29:57;3.63;;;1.90;;
4353;SDS011;11018;51.258;6.806;2022-08-03T12:32:25;6.38;;;1.85;;
4353;SDS011;11018;51.258;6.806;2022-08-03T12:34:51;3.60;;;1.67;;
4353;SDS011;11018;51.258;6.806;2022-08-03T12:37:20;6.00;;;1.90;;
4353;SDS011;11018;51.258;6.806;2022-08-03T12:39:53;4.03;;;1.70;;
4353;SDS011;11018;51.258;6.806;2022-08-03T12:42:20;7.10;;;2.08;;
4353;SDS011;11018;51.258;6.806;2022-08-03T12:44:46;4.50;;;1.73;;
4353;SDS011;11018;51.258;6.806;2022-08-03T12:47:13;7.18;;;1.88;;
4353;SDS011;11018;51.258;6.806;2022-08-03T12:49:44;2.87;;;1.77;;
4353;SDS011;11018;51.258;6.806;2022-08-03T12:52:11;9.48;;;2.10;;
4353;SDS011;11018;51.258;6.806;2022-08-03T12:54:36;4.50;;;1.90;;
4353;SDS011;11018;51.258;6.806;2022-08-03T12:57:03;4.25;;;2.10;;
4353;SDS011;11018;51.258;6.806;2022-08-03T12:59:40;5.05;;;1.83;;
4353;SDS011;11018;51.258;6.806;2022-08-03T13:02:17;5.18;;;2.05;;
4353;SDS011;11018;51.258;6.806;2022-08-03T13:04:45;8.07;;;2.00;;
4353;SDS011;11018;51.258;6.806;2022-08-03T13:07:11;3.95;;;2.00;;
4353;SDS011;11018;51.258;6.806;2022-08-03T13:14:40;6.50;;;2.30;;
4353;SDS011;11018;51.258;6.806;2022-08-03T13:17:07;7.63;;;1.92;;
4353;SDS011;11018;51.258;6.806;2022-08-03T13:19:33;4.53;;;1.90;;
4353;SDS011;11018;51.258;6.806;2022-08-03T13:22:00;3.33;;;1.60;;
4353;SDS011;11018;51.258;6.806;2022-08-03T13:24:46;4.25;;;1.90;;
4353;SDS011;11018;51.258;6.806;2022-08-03T13:27:15;4.10;;;1.83;;
4353;SDS011;11018;51.258;6.806;2022-08-03T13:29:41;5.40;;;1.70;;
4353;SDS011;11018;51.258;6.806;2022-08-03T13:32:07;7.13;;;1.83;;
4353;SDS011;11018;51.258;6.806;2022-08-03T13:34:33;5.85;;;2.10;;
4353;SDS011;11018;51.258;6.806;2022-08-03T13:36:59;5.37;;;1.60;;
4353;SDS011;11018;51.258;6.806;2022-08-03T13:39:24;1.90;;;1.27;;
4353;SDS011;11018;51.258;6.806;2022-08-03T13:41:50;4.53;;;1.40;;
4353;SDS011;11018;51.258;6.806;2022-08-03T13:44:16;3.67;;;1.50;;
4353;SDS011;11018;51.258;6.806;2022-08-03T13:46:43;2.88;;;1.58;;
4353;SDS011;11018;51.258;6.806;2022-08-03T13:49:09;2.53;;;1.55;;
4353;SDS011;11018;51.258;6.806;2022-08-03T13:51:35;6.05;;;1.60;;
4353;SDS011;11018;51.258;6.806;2022-08-03T13:54:00;6.70;;;1.90;;
4353;SDS011;11018;51.258;6.806;2022-08-03T13:56:26;2.77;;;1.30;;
4353;SDS011;11018;51.258;6.806;2022-08-03T13:58:53;2.20;;;1.40;;
4353;SDS011;11018;51.258;6.806;2022-08-03T14:01:19;3.03;;;1.52;;
4353;SDS011;11018;51.258;6.806;2022-08-03T14:03:45;4.30;;;1.50;;
4353;SDS011;11018;51.258;6.806;2022-08-03T14:06:12;6.07;;;1.30;;
4353;SDS011;11018;51.258;6.806;2022-08-03T14:08:38;2.60;;;1.20;;
4353;SDS011;11018;51.258;6.806;2022-08-03T14:11:04;4.20;;;1.25;;
4353;SDS011;11018;51.258;6.806;2022-08-03T14:13:30;4.90;;;1.40;;
4353;SDS011;11018;51.258;6.806;2022-08-03T14:15:55;3.40;;;1.40;;
4353;SDS011;11018;51.258;6.806;2022-08-03T14:18:21;4.10;;;1.30;;
4353;SDS011;11018;51.258;6.806;2022-08-03T14:20:46;2.97;;;1.20;;
4353;SDS011;11018;51.258;6.806;2022-08-03T14:23:12;6.78;;;1.38;;
4353;SDS011;11018;51.258;6.806;2022-08-03T14:25:38;2.23;;;1.50;;
4353;SDS011;11018;51.258;6.806;2022-08-03T14:28:05;4.53;;;1.20;;
4353;SDS011;11018;51.258;6.806;2022-08-03T14:30:31;1.70;;;1.00;;
4353;SDS011;11018;51.258;6.806;2022-08-03T14:32:57;1.80;;;1.10;;
4353;SDS011;11018;51.258;6.806;2022-08-03T14:35:23;3.00;;;1.10;;
4353;SDS011;11018;51.258;6.806;2022-08-03T14:37:48;4.07;;;1.43;;
4353;SDS011;11018;51.258;6.806;2022-08-03T14:40:15;2.40;;;1.20;;
4353;SDS011;11018;51.258;6.806;2022-08-03T14:42:41;3.35;;;1.40;;
4353;SDS011;11018;51.258;6.806;2022-08-03T14:45:07;2.80;;;1.17;;
4353;SDS011;11018;51.258;6.806;2022-08-03T14:47:33;3.73;;;1.13;;
4353;SDS011;11018;51.258;6.806;2022-08-03T14:49:58;6.72;;;1.30;;
4353;SDS011;11018;51.258;6.806;2022-08-03T14:52:24;4.80;;;1.33;;
4353;SDS011;11018;51.258;6.806;2022-08-03T14:54:50;4.20;;;1.50;;
4353;SDS011;11018;51.258;6.806;2022-08-03T14:57:15;4.37;;;1.20;;
4353;SDS011;11018;51.258;6.806;2022-08-03T14:59:41;5.05;;;1.40;;
4353;SDS011;11018;51.258;6.806;2022-08-03T15:02:06;2.63;;;1.00;;
4353;SDS011;11018;51.258;6.806;2022-08-03T15:04:32;5.13;;;1.20;;
4353;SDS011;11018;51.258;6.806;2022-08-03T15:06:57;3.73;;;1.10;;
4353;SDS011;11018;51.258;6.806;2022-08-03T15:09:24;5.53;;;1.50;;
4353;SDS011;11018;51.258;6.806;2022-08-03T15:11:49;7.27;;;1.30;;
4353;SDS011;11018;51.258;6.806;2022-08-03T15:14:15;3.55;;;1.23;;
4353;SDS011;11018;51.258;6.806;2022-08-03T15:16:40;4.35;;;1.20;;
4353;SDS011;11018;51.258;6.806;2022-08-03T15:19:06;3.33;;;1.20;;
4353;SDS011;11018;51.258;6.806;2022-08-03T15:21:32;4.05;;;1.30;;
4353;SDS011;11018;51.258;6.806;2022-08-03T15:23:57;2.38;;;1.00;;
4353;SDS011;11018;51.258;6.806;2022-08-03T15:26:23;4.60;;;1.20;;
4353;SDS011;11018;51.258;6.806;2022-08-03T15:28:48;1.67;;;1.10;;
4353;SDS011;11018;51.258;6.806;2022-08-03T15:31:14;3.35;;;1.10;;
4353;SDS011;11018;51.258;6.806;2022-08-03T15:33:44;5.10;;;1.00;;
4353;SDS011;11018;51.258;6.806;2022-08-03T15:36:09;3.30;;;1.70;;